This is the latest recevied weather packets stored in our database for station/object N7WSS. If no packets are shown the sender has not sent any weather packets the latest 10 day(s).
| Time | Temp. | Humidity | Pressure | Rain* | Wind** | Luminosity | Snow |
|---|---|---|---|---|---|---|---|
| 1778086498 | 20° C | 37% | 1014.5 hPa | 0 mm | - | - | - |
| 1778086194 | 20.56° C | 38% | 1014.2 hPa | 0 mm | - | - | - |
| 1778085891 | 20° C | 39% | 1014.4 hPa | 0 mm | - | - | - |
| 1778085589 | 20° C | 39% | 1014.4 hPa | 0 mm | - | - | - |
| 1778085283 | 19.44° C | 39% | 1014.5 hPa | 0 mm | - | - | - |
| 1778084978 | 20° C | 41% | 1014.2 hPa | 0 mm | - | - | - |
| 1778084677 | 20° C | 39% | 1014.2 hPa | 0 mm | - | - | - |
| 1778084374 | 20° C | 40% | 1014.1 hPa | 0 mm | - | - | - |
| 1778084072 | 20° C | 40% | 1014.1 hPa | 0 mm | - | - | - |
| 1778083769 | 20° C | 39% | 1014.1 hPa | 0 mm | - | - | - |
| 1778083466 | 18.89° C | 42% | 1014.3 hPa | 0 mm | - | - | - |
| 1778083164 | 18.89° C | 44% | 1014 hPa | 0 mm | - | - | - |
| 1778082861 | 18.89° C | 43% | 1014.1 hPa | 0 mm | - | - | - |
| 1778081742 | 18.33° C | 45% | 1014.2 hPa | 0 mm | - | - | - |
| 1778081440 | 18.33° C | 45% | 1014.3 hPa | 0 mm | - | - | - |
| 1778081137 | 18.89° C | 44% | 1014 hPa | 0 mm | - | - | - |
| 1778080835 | 17.78° C | 46% | 1014.1 hPa | 0 mm | - | - | - |
| 1778080532 | 17.78° C | 47% | 1014.3 hPa | 0 mm | - | - | - |
| 1778080230 | 18.33° C | 46% | 1014.2 hPa | 0 mm | - | - | - |
| 1778079926 | 17.22° C | 47% | 1014.3 hPa | 0 mm | - | - | - |
| 1778079623 | 16.67° C | 50% | 1014.3 hPa | 0 mm | - | - | - |
| 1778079319 | 17.22° C | 48% | 1014.3 hPa | 0 mm | - | - | - |
| 1778079017 | 17.78° C | 46% | 1014.2 hPa | 0 mm | - | - | - |
| 1778078713 | 17.78° C | 45% | 1014.2 hPa | 0 mm | - | - | - |
| 1778078411 | 17.22° C | 49% | 1014.2 hPa | 0 mm | - | - | - |
* Rain latest hour (hover to see other rain measurements)
** Current wind speed in m/s (hover to see current wind gust speed)